sensor_id;sensor_type;location;lat;lon;timestamp;P1;durP1;ratioP1;P2;durP2;ratioP2
20739;SDS011;10530;49.968;19.844;2023-07-02T00:01:07;26.50;;;13.73;;
20739;SDS011;10530;49.968;19.844;2023-07-02T00:06:10;26.63;;;13.18;;
20739;SDS011;10530;49.968;19.844;2023-07-02T00:11:15;27.27;;;12.90;;
20739;SDS011;10530;49.968;19.844;2023-07-02T00:16:18;27.85;;;13.48;;
20739;SDS011;10530;49.968;19.844;2023-07-02T00:21:21;28.40;;;13.40;;
20739;SDS011;10530;49.968;19.844;2023-07-02T00:26:24;29.38;;;13.70;;
20739;SDS011;10530;49.968;19.844;2023-07-02T00:31:27;25.63;;;12.05;;
20739;SDS011;10530;49.968;19.844;2023-07-02T00:36:30;26.42;;;12.88;;
20739;SDS011;10530;49.968;19.844;2023-07-02T00:41:33;27.38;;;12.63;;
20739;SDS011;10530;49.968;19.844;2023-07-02T00:46:36;25.53;;;12.33;;
20739;SDS011;10530;49.968;19.844;2023-07-02T00:51:39;25.05;;;12.63;;
20739;SDS011;10530;49.968;19.844;2023-07-02T00:56:43;25.67;;;12.18;;
20739;SDS011;10530;49.968;19.844;2023-07-02T01:01:49;26.08;;;12.02;;
20739;SDS011;10530;49.968;19.844;2023-07-02T01:06:54;26.13;;;12.57;;
20739;SDS011;10530;49.968;19.844;2023-07-02T01:12:00;23.13;;;11.10;;
20739;SDS011;10530;49.968;19.844;2023-07-02T01:17:06;22.75;;;11.57;;
20739;SDS011;10530;49.968;19.844;2023-07-02T01:22:11;23.30;;;11.15;;
20739;SDS011;10530;49.968;19.844;2023-07-02T01:27:15;24.88;;;11.77;;
20739;SDS011;10530;49.968;19.844;2023-07-02T01:32:18;22.17;;;11.18;;
20739;SDS011;10530;49.968;19.844;2023-07-02T01:37:24;22.43;;;11.03;;
20739;SDS011;10530;49.968;19.844;2023-07-02T01:42:27;23.90;;;10.93;;
20739;SDS011;10530;49.968;19.844;2023-07-02T01:47:30;20.15;;;10.48;;
20739;SDS011;10530;49.968;19.844;2023-07-02T01:52:33;20.83;;;10.50;;
20739;SDS011;10530;49.968;19.844;2023-07-02T01:57:36;23.10;;;10.77;;
20739;SDS011;10530;49.968;19.844;2023-07-02T02:02:39;22.60;;;10.50;;
20739;SDS011;10530;49.968;19.844;2023-07-02T02:07:42;21.90;;;10.13;;
20739;SDS011;10530;49.968;19.844;2023-07-02T02:12:46;21.08;;;9.80;;
20739;SDS011;10530;49.968;19.844;2023-07-02T02:17:48;19.63;;;9.52;;
20739;SDS011;10530;49.968;19.844;2023-07-02T02:22:51;20.08;;;10.13;;
20739;SDS011;10530;49.968;19.844;2023-07-02T02:27:54;19.43;;;9.23;;
20739;SDS011;10530;49.968;19.844;2023-07-02T02:32:57;16.98;;;8.75;;
20739;SDS011;10530;49.968;19.844;2023-07-02T02:38:02;18.55;;;8.77;;
20739;SDS011;10530;49.968;19.844;2023-07-02T02:43:06;18.33;;;9.18;;
20739;SDS011;10530;49.968;19.844;2023-07-02T02:48:11;18.13;;;9.20;;
20739;SDS011;10530;49.968;19.844;2023-07-02T02:53:13;17.37;;;8.47;;
20739;SDS011;10530;49.968;19.844;2023-07-02T02:58:16;18.17;;;9.35;;
20739;SDS011;10530;49.968;19.844;2023-07-02T03:03:19;15.55;;;8.25;;
20739;SDS011;10530;49.968;19.844;2023-07-02T03:08:23;17.63;;;8.00;;
20739;SDS011;10530;49.968;19.844;2023-07-02T03:13:26;17.45;;;8.75;;
20739;SDS011;10530;49.968;19.844;2023-07-02T03:18:29;17.70;;;8.80;;
20739;SDS011;10530;49.968;19.844;2023-07-02T03:23:31;14.77;;;7.57;;
20739;SDS011;10530;49.968;19.844;2023-07-02T03:28:34;17.35;;;8.18;;
20739;SDS011;10530;49.968;19.844;2023-07-02T03:33:37;16.95;;;8.52;;
20739;SDS011;10530;49.968;19.844;2023-07-02T03:38:39;16.65;;;8.13;;
20739;SDS011;10530;49.968;19.844;2023-07-02T03:43:42;18.87;;;8.10;;
20739;SDS011;10530;49.968;19.844;2023-07-02T03:48:45;16.40;;;8.57;;
20739;SDS011;10530;49.968;19.844;2023-07-02T03:53:48;16.92;;;8.70;;
20739;SDS011;10530;49.968;19.844;2023-07-02T03:58:50;17.20;;;8.63;;
20739;SDS011;10530;49.968;19.844;2023-07-02T04:03:54;17.40;;;8.52;;
20739;SDS011;10530;49.968;19.844;2023-07-02T04:08:57;15.57;;;7.47;;
20739;SDS011;10530;49.968;19.844;2023-07-02T04:14:00;15.35;;;8.23;;
20739;SDS011;10530;49.968;19.844;2023-07-02T04:19:02;18.00;;;8.48;;
20739;SDS011;10530;49.968;19.844;2023-07-02T04:24:05;15.93;;;8.73;;
20739;SDS011;10530;49.968;19.844;2023-07-02T04:29:09;17.42;;;8.05;;
20739;SDS011;10530;49.968;19.844;2023-07-02T04:34:13;17.73;;;8.60;;
20739;SDS011;10530;49.968;19.844;2023-07-02T04:39:15;16.73;;;8.43;;
20739;SDS011;10530;49.968;19.844;2023-07-02T04:44:18;16.95;;;7.90;;
20739;SDS011;10530;49.968;19.844;2023-07-02T04:49:23;15.45;;;7.72;;
20739;SDS011;10530;49.968;19.844;2023-07-02T04:54:26;14.82;;;7.22;;
20739;SDS011;10530;49.968;19.844;2023-07-02T04:59:29;13.37;;;7.30;;
20739;SDS011;10530;49.968;19.844;2023-07-02T05:04:32;13.98;;;7.25;;
20739;SDS011;10530;49.968;19.844;2023-07-02T05:09:35;14.32;;;7.18;;
20739;SDS011;10530;49.968;19.844;2023-07-02T05:14:37;13.43;;;7.15;;
20739;SDS011;10530;49.968;19.844;2023-07-02T05:19:40;14.80;;;7.22;;
20739;SDS011;10530;49.968;19.844;2023-07-02T05:24:43;12.40;;;6.63;;
20739;SDS011;10530;49.968;19.844;2023-07-02T05:29:46;14.68;;;7.18;;
20739;SDS011;10530;49.968;19.844;2023-07-02T05:34:51;12.70;;;6.63;;
20739;SDS011;10530;49.968;19.844;2023-07-02T05:39:54;12.93;;;6.13;;
20739;SDS011;10530;49.968;19.844;2023-07-02T05:44:57;11.25;;;5.93;;
20739;SDS011;10530;49.968;19.844;2023-07-02T05:50:00;14.47;;;6.37;;
20739;SDS011;10530;49.968;19.844;2023-07-02T05:55:03;10.65;;;6.10;;
20739;SDS011;10530;49.968;19.844;2023-07-02T06:00:06;13.82;;;5.68;;
20739;SDS011;10530;49.968;19.844;2023-07-02T06:05:13;12.73;;;6.07;;
20739;SDS011;10530;49.968;19.844;2023-07-02T06:10:15;11.57;;;5.45;;
20739;SDS011;10530;49.968;19.844;2023-07-02T06:15:19;11.83;;;5.80;;
20739;SDS011;10530;49.968;19.844;2023-07-02T06:20:22;11.23;;;6.00;;
20739;SDS011;10530;49.968;19.844;2023-07-02T06:25:25;12.60;;;6.05;;
20739;SDS011;10530;49.968;19.844;2023-07-02T06:30:28;11.13;;;5.20;;
20739;SDS011;10530;49.968;19.844;2023-07-02T06:35:31;10.98;;;4.90;;
20739;SDS011;10530;49.968;19.844;2023-07-02T06:40:35;9.53;;;4.97;;
20739;SDS011;10530;49.968;19.844;2023-07-02T06:45:37;9.77;;;5.05;;
20739;SDS011;10530;49.968;19.844;2023-07-02T06:50:42;9.55;;;4.60;;
20739;SDS011;10530;49.968;19.844;2023-07-02T06:55:46;8.48;;;4.10;;
20739;SDS011;10530;49.968;19.844;2023-07-02T07:00:49;7.28;;;3.50;;
20739;SDS011;10530;49.968;19.844;2023-07-02T07:05:53;8.93;;;3.93;;
20739;SDS011;10530;49.968;19.844;2023-07-02T07:10:56;9.00;;;4.07;;
20739;SDS011;10530;49.968;19.844;2023-07-02T07:15:59;8.45;;;3.95;;
20739;SDS011;10530;49.968;19.844;2023-07-02T07:21:02;7.75;;;3.70;;
20739;SDS011;10530;49.968;19.844;2023-07-02T07:26:05;7.55;;;4.00;;
20739;SDS011;10530;49.968;19.844;2023-07-02T07:31:08;7.87;;;3.73;;
20739;SDS011;10530;49.968;19.844;2023-07-02T07:36:11;8.75;;;3.95;;
20739;SDS011;10530;49.968;19.844;2023-07-02T07:41:14;9.52;;;4.50;;
20739;SDS011;10530;49.968;19.844;2023-07-02T07:46:17;8.00;;;2.90;;
20739;SDS011;10530;49.968;19.844;2023-07-02T07:51:20;7.50;;;3.83;;
20739;SDS011;10530;49.968;19.844;2023-07-02T07:56:23;7.20;;;3.77;;
20739;SDS011;10530;49.968;19.844;2023-07-02T08:01:26;7.20;;;3.72;;
20739;SDS011;10530;49.968;19.844;2023-07-02T08:06:30;8.93;;;4.03;;
20739;SDS011;10530;49.968;19.844;2023-07-02T08:11:33;8.27;;;4.40;;
20739;SDS011;10530;49.968;19.844;2023-07-02T08:16:36;7.07;;;3.90;;
20739;SDS011;10530;49.968;19.844;2023-07-02T08:21:40;10.43;;;4.20;;
20739;SDS011;10530;49.968;19.844;2023-07-02T08:26:43;9.50;;;4.38;;
20739;SDS011;10530;49.968;19.844;2023-07-02T08:31:46;7.95;;;4.25;;
20739;SDS011;10530;49.968;19.844;2023-07-02T08:36:49;10.55;;;4.40;;
20739;SDS011;10530;49.968;19.844;2023-07-02T08:41:53;7.70;;;4.03;;
20739;SDS011;10530;49.968;19.844;2023-07-02T08:46:57;8.20;;;4.50;;
20739;SDS011;10530;49.968;19.844;2023-07-02T08:52:00;6.97;;;3.53;;
20739;SDS011;10530;49.968;19.844;2023-07-02T08:57:04;7.82;;;4.20;;
20739;SDS011;10530;49.968;19.844;2023-07-02T09:02:07;6.97;;;3.42;;
20739;SDS011;10530;49.968;19.844;2023-07-02T09:07:10;9.50;;;2.95;;
20739;SDS011;10530;49.968;19.844;2023-07-02T09:12:29;6.50;;;2.93;;
20739;SDS011;10530;49.968;19.844;2023-07-02T09:17:34;6.28;;;3.15;;
20739;SDS011;10530;49.968;19.844;2023-07-02T09:22:40;6.07;;;2.90;;
20739;SDS011;10530;49.968;19.844;2023-07-02T09:27:43;5.38;;;2.85;;
20739;SDS011;10530;49.968;19.844;2023-07-02T09:32:46;6.03;;;2.88;;
20739;SDS011;10530;49.968;19.844;2023-07-02T09:37:49;6.70;;;3.27;;
20739;SDS011;10530;49.968;19.844;2023-07-02T09:42:54;7.72;;;3.47;;
20739;SDS011;10530;49.968;19.844;2023-07-02T09:47:59;7.20;;;2.88;;
20739;SDS011;10530;49.968;19.844;2023-07-02T09:53:02;4.85;;;2.13;;
20739;SDS011;10530;49.968;19.844;2023-07-02T09:58:05;6.00;;;2.28;;
20739;SDS011;10530;49.968;19.844;2023-07-02T10:03:08;5.17;;;2.37;;
20739;SDS011;10530;49.968;19.844;2023-07-02T10:08:12;5.35;;;2.40;;
20739;SDS011;10530;49.968;19.844;2023-07-02T10:13:26;4.50;;;2.08;;
20739;SDS011;10530;49.968;19.844;2023-07-02T10:18:29;5.38;;;2.10;;
20739;SDS011;10530;49.968;19.844;2023-07-02T10:23:33;4.80;;;2.15;;
20739;SDS011;10530;49.968;19.844;2023-07-02T10:28:41;6.67;;;2.43;;
20739;SDS011;10530;49.968;19.844;2023-07-02T10:33:44;5.85;;;2.90;;
20739;SDS011;10530;49.968;19.844;2023-07-02T10:38:48;6.72;;;4.10;;
20739;SDS011;10530;49.968;19.844;2023-07-02T10:43:52;5.78;;;3.63;;
20739;SDS011;10530;49.968;19.844;2023-07-02T10:48:55;6.68;;;3.80;;
20739;SDS011;10530;49.968;19.844;2023-07-02T10:53:59;6.83;;;3.60;;
20739;SDS011;10530;49.968;19.844;2023-07-02T10:59:03;6.45;;;3.50;;
20739;SDS011;10530;49.968;19.844;2023-07-02T11:04:06;5.85;;;3.60;;
20739;SDS011;10530;49.968;19.844;2023-07-02T11:09:15;6.38;;;3.17;;
20739;SDS011;10530;49.968;19.844;2023-07-02T11:14:37;5.45;;;3.28;;
20739;SDS011;10530;49.968;19.844;2023-07-02T11:19:41;5.97;;;3.47;;
20739;SDS011;10530;49.968;19.844;2023-07-02T11:24:53;4.70;;;2.85;;
20739;SDS011;10530;49.968;19.844;2023-07-02T11:29:59;5.07;;;3.40;;
20739;SDS011;10530;49.968;19.844;2023-07-02T11:35:02;5.45;;;3.30;;
20739;SDS011;10530;49.968;19.844;2023-07-02T11:40:05;5.57;;;3.50;;
20739;SDS011;10530;49.968;19.844;2023-07-02T11:45:09;5.37;;;3.30;;
20739;SDS011;10530;49.968;19.844;2023-07-02T11:50:12;5.15;;;3.10;;
20739;SDS011;10530;49.968;19.844;2023-07-02T11:55:27;5.22;;;2.75;;
20739;SDS011;10530;49.968;19.844;2023-07-02T12:00:31;5.65;;;2.78;;
20739;SDS011;10530;49.968;19.844;2023-07-02T12:05:34;5.90;;;2.90;;
20739;SDS011;10530;49.968;19.844;2023-07-02T12:10:37;4.90;;;3.20;;
20739;SDS011;10530;49.968;19.844;2023-07-02T12:15:40;4.97;;;3.08;;
20739;SDS011;10530;49.968;19.844;2023-07-02T12:20:43;6.70;;;3.60;;
20739;SDS011;10530;49.968;19.844;2023-07-02T12:25:46;4.85;;;2.65;;
20739;SDS011;10530;49.968;19.844;2023-07-02T12:30:49;4.55;;;2.40;;
20739;SDS011;10530;49.968;19.844;2023-07-02T12:35:52;4.57;;;2.40;;
20739;SDS011;10530;49.968;19.844;2023-07-02T12:40:55;4.57;;;2.65;;
20739;SDS011;10530;49.968;19.844;2023-07-02T12:45:58;4.65;;;2.70;;
20739;SDS011;10530;49.968;19.844;2023-07-02T12:51:01;5.65;;;3.50;;
20739;SDS011;10530;49.968;19.844;2023-07-02T12:56:04;4.75;;;2.85;;
20739;SDS011;10530;49.968;19.844;2023-07-02T13:01:08;5.17;;;3.40;;
20739;SDS011;10530;49.968;19.844;2023-07-02T13:06:11;4.20;;;2.60;;
20739;SDS011;10530;49.968;19.844;2023-07-02T13:11:13;5.03;;;2.80;;
20739;SDS011;10530;49.968;19.844;2023-07-02T13:16:16;4.47;;;2.42;;
20739;SDS011;10530;49.968;19.844;2023-07-02T13:21:19;5.07;;;2.90;;
20739;SDS011;10530;49.968;19.844;2023-07-02T13:26:22;6.33;;;3.47;;
20739;SDS011;10530;49.968;19.844;2023-07-02T13:31:25;5.47;;;2.53;;
20739;SDS011;10530;49.968;19.844;2023-07-02T13:36:27;5.97;;;3.13;;
20739;SDS011;10530;49.968;19.844;2023-07-02T13:41:31;4.50;;;2.40;;
20739;SDS011;10530;49.968;19.844;2023-07-02T13:46:34;6.80;;;2.53;;
20739;SDS011;10530;49.968;19.844;2023-07-02T13:51:37;5.53;;;2.53;;
20739;SDS011;10530;49.968;19.844;2023-07-02T13:56:40;8.05;;;1.83;;
20739;SDS011;10530;49.968;19.844;2023-07-02T14:01:43;2.88;;;1.13;;
20739;SDS011;10530;49.968;19.844;2023-07-02T14:06:46;4.10;;;1.50;;
20739;SDS011;10530;49.968;19.844;2023-07-02T14:11:49;3.30;;;1.30;;
20739;SDS011;10530;49.968;19.844;2023-07-02T14:16:52;4.07;;;1.30;;
20739;SDS011;10530;49.968;19.844;2023-07-02T14:21:55;3.85;;;1.00;;
20739;SDS011;10530;49.968;19.844;2023-07-02T14:26:58;3.38;;;1.20;;
20739;SDS011;10530;49.968;19.844;2023-07-02T14:32:01;3.47;;;1.30;;
20739;SDS011;10530;49.968;19.844;2023-07-02T14:37:04;3.72;;;1.27;;
20739;SDS011;10530;49.968;19.844;2023-07-02T14:42:08;4.60;;;1.50;;
20739;SDS011;10530;49.968;19.844;2023-07-02T14:47:10;4.07;;;1.42;;
20739;SDS011;10530;49.968;19.844;2023-07-02T14:52:13;4.40;;;1.48;;
20739;SDS011;10530;49.968;19.844;2023-07-02T14:57:16;3.78;;;1.33;;
20739;SDS011;10530;49.968;19.844;2023-07-02T15:02:21;4.32;;;1.83;;
20739;SDS011;10530;49.968;19.844;2023-07-02T15:07:24;3.10;;;1.40;;
20739;SDS011;10530;49.968;19.844;2023-07-02T15:12:27;3.13;;;1.33;;
20739;SDS011;10530;49.968;19.844;2023-07-02T15:17:30;3.85;;;1.40;;
20739;SDS011;10530;49.968;19.844;2023-07-02T15:22:33;3.70;;;1.50;;
20739;SDS011;10530;49.968;19.844;2023-07-02T15:27:37;3.50;;;1.65;;
20739;SDS011;10530;49.968;19.844;2023-07-02T15:32:40;4.43;;;1.47;;
20739;SDS011;10530;49.968;19.844;2023-07-02T15:37:43;4.53;;;1.52;;
20739;SDS011;10530;49.968;19.844;2023-07-02T15:42:46;3.90;;;1.52;;
20739;SDS011;10530;49.968;19.844;2023-07-02T15:47:49;4.05;;;1.50;;
20739;SDS011;10530;49.968;19.844;2023-07-02T15:52:51;3.80;;;1.77;;
20739;SDS011;10530;49.968;19.844;2023-07-02T15:57:54;4.17;;;1.70;;
20739;SDS011;10530;49.968;19.844;2023-07-02T16:02:57;3.45;;;1.60;;
20739;SDS011;10530;49.968;19.844;2023-07-02T16:08:02;3.50;;;1.60;;
20739;SDS011;10530;49.968;19.844;2023-07-02T16:13:06;3.63;;;1.63;;
20739;SDS011;10530;49.968;19.844;2023-07-02T16:18:09;4.80;;;1.80;;
20739;SDS011;10530;49.968;19.844;2023-07-02T16:23:12;3.83;;;1.73;;
20739;SDS011;10530;49.968;19.844;2023-07-02T16:28:15;3.90;;;2.03;;
20739;SDS011;10530;49.968;19.844;2023-07-02T16:33:19;4.28;;;1.92;;
20739;SDS011;10530;49.968;19.844;2023-07-02T16:38:22;3.70;;;1.70;;
20739;SDS011;10530;49.968;19.844;2023-07-02T16:43:25;4.10;;;1.75;;
20739;SDS011;10530;49.968;19.844;2023-07-02T16:48:29;4.40;;;1.90;;
20739;SDS011;10530;49.968;19.844;2023-07-02T16:53:33;4.40;;;1.90;;
20739;SDS011;10530;49.968;19.844;2023-07-02T16:58:36;5.03;;;1.98;;
20739;SDS011;10530;49.968;19.844;2023-07-02T17:03:41;5.57;;;2.05;;
20739;SDS011;10530;49.968;19.844;2023-07-02T17:08:49;4.57;;;2.13;;
20739;SDS011;10530;49.968;19.844;2023-07-02T17:14:32;4.97;;;1.90;;
20739;SDS011;10530;49.968;19.844;2023-07-02T17:19:39;4.05;;;2.10;;
20739;SDS011;10530;49.968;19.844;2023-07-02T17:24:44;4.93;;;2.00;;
20739;SDS011;10530;49.968;19.844;2023-07-02T17:29:49;6.95;;;2.20;;
20739;SDS011;10530;49.968;19.844;2023-07-02T17:34:53;4.93;;;2.30;;
20739;SDS011;10530;49.968;19.844;2023-07-02T17:39:57;4.20;;;2.00;;
20739;SDS011;10530;49.968;19.844;2023-07-02T17:44:59;4.80;;;2.30;;
20739;SDS011;10530;49.968;19.844;2023-07-02T17:50:03;5.55;;;2.47;;
20739;SDS011;10530;49.968;19.844;2023-07-02T17:55:07;4.65;;;2.17;;
20739;SDS011;10530;49.968;19.844;2023-07-02T18:00:11;4.82;;;2.40;;
20739;SDS011;10530;49.968;19.844;2023-07-02T18:05:15;4.80;;;2.10;;
20739;SDS011;10530;49.968;19.844;2023-07-02T18:10:18;8.25;;;2.47;;
20739;SDS011;10530;49.968;19.844;2023-07-02T18:15:20;5.13;;;2.38;;
20739;SDS011;10530;49.968;19.844;2023-07-02T18:20:23;6.75;;;2.50;;
20739;SDS011;10530;49.968;19.844;2023-07-02T18:25:26;6.10;;;2.67;;
20739;SDS011;10530;49.968;19.844;2023-07-02T18:30:30;5.57;;;2.43;;
20739;SDS011;10530;49.968;19.844;2023-07-02T18:35:33;5.72;;;2.45;;
20739;SDS011;10530;49.968;19.844;2023-07-02T18:40:37;5.30;;;2.58;;
20739;SDS011;10530;49.968;19.844;2023-07-02T18:45:40;5.05;;;2.33;;
20739;SDS011;10530;49.968;19.844;2023-07-02T18:50:43;6.30;;;2.72;;
20739;SDS011;10530;49.968;19.844;2023-07-02T18:55:59;5.80;;;2.53;;
20739;SDS011;10530;49.968;19.844;2023-07-02T19:01:07;6.53;;;2.60;;
20739;SDS011;10530;49.968;19.844;2023-07-02T19:06:12;5.05;;;2.60;;
20739;SDS011;10530;49.968;19.844;2023-07-02T19:11:15;4.90;;;2.67;;
20739;SDS011;10530;49.968;19.844;2023-07-02T19:16:18;6.60;;;2.60;;
20739;SDS011;10530;49.968;19.844;2023-07-02T19:21:21;6.23;;;2.77;;
20739;SDS011;10530;49.968;19.844;2023-07-02T19:26:25;5.30;;;2.55;;
20739;SDS011;10530;49.968;19.844;2023-07-02T19:31:28;6.32;;;2.65;;
20739;SDS011;10530;49.968;19.844;2023-07-02T19:36:31;6.55;;;2.97;;
20739;SDS011;10530;49.968;19.844;2023-07-02T19:41:34;5.70;;;2.85;;
20739;SDS011;10530;49.968;19.844;2023-07-02T19:46:37;5.73;;;2.53;;
20739;SDS011;10530;49.968;19.844;2023-07-02T19:51:41;6.97;;;2.90;;
20739;SDS011;10530;49.968;19.844;2023-07-02T19:56:49;7.85;;;2.75;;
20739;SDS011;10530;49.968;19.844;2023-07-02T20:01:53;5.63;;;2.65;;
20739;SDS011;10530;49.968;19.844;2023-07-02T20:06:55;5.95;;;2.65;;
20739;SDS011;10530;49.968;19.844;2023-07-02T20:11:58;6.80;;;2.93;;
20739;SDS011;10530;49.968;19.844;2023-07-02T20:17:02;7.05;;;3.20;;
20739;SDS011;10530;49.968;19.844;2023-07-02T20:22:06;9.13;;;2.92;;
20739;SDS011;10530;49.968;19.844;2023-07-02T20:27:09;7.25;;;2.90;;
20739;SDS011;10530;49.968;19.844;2023-07-02T20:32:12;5.93;;;2.97;;
20739;SDS011;10530;49.968;19.844;2023-07-02T20:37:15;7.33;;;2.93;;
20739;SDS011;10530;49.968;19.844;2023-07-02T20:42:23;6.68;;;2.90;;
20739;SDS011;10530;49.968;19.844;2023-07-02T20:47:26;6.35;;;3.00;;
20739;SDS011;10530;49.968;19.844;2023-07-02T20:52:30;5.88;;;3.10;;
20739;SDS011;10530;49.968;19.844;2023-07-02T20:57:33;6.20;;;2.90;;
20739;SDS011;10530;49.968;19.844;2023-07-02T21:02:36;8.60;;;3.90;;
20739;SDS011;10530;49.968;19.844;2023-07-02T21:07:40;7.28;;;3.17;;
20739;SDS011;10530;49.968;19.844;2023-07-02T21:12:43;5.63;;;2.75;;
20739;SDS011;10530;49.968;19.844;2023-07-02T21:17:49;7.32;;;2.97;;
20739;SDS011;10530;49.968;19.844;2023-07-02T21:22:52;5.63;;;2.58;;
20739;SDS011;10530;49.968;19.844;2023-07-02T21:27:55;7.40;;;2.87;;
20739;SDS011;10530;49.968;19.844;2023-07-02T21:32:58;6.30;;;2.78;;
20739;SDS011;10530;49.968;19.844;2023-07-02T21:38:03;5.65;;;2.70;;
20739;SDS011;10530;49.968;19.844;2023-07-02T21:43:06;5.68;;;2.70;;
20739;SDS011;10530;49.968;19.844;2023-07-02T21:48:09;5.75;;;2.45;;
20739;SDS011;10530;49.968;19.844;2023-07-02T21:53:12;6.30;;;2.80;;
20739;SDS011;10530;49.968;19.844;2023-07-02T21:58:15;5.43;;;2.50;;
20739;SDS011;10530;49.968;19.844;2023-07-02T22:03:19;6.32;;;2.80;;
20739;SDS011;10530;49.968;19.844;2023-07-02T22:08:22;6.68;;;2.92;;
20739;SDS011;10530;49.968;19.844;2023-07-02T22:13:25;5.50;;;2.80;;
20739;SDS011;10530;49.968;19.844;2023-07-02T22:18:28;7.00;;;3.17;;
20739;SDS011;10530;49.968;19.844;2023-07-02T22:23:32;7.38;;;2.70;;
20739;SDS011;10530;49.968;19.844;2023-07-02T22:28:35;5.63;;;2.72;;
20739;SDS011;10530;49.968;19.844;2023-07-02T22:33:37;5.70;;;2.67;;
20739;SDS011;10530;49.968;19.844;2023-07-02T22:38:40;6.40;;;2.80;;
20739;SDS011;10530;49.968;19.844;2023-07-02T22:43:43;7.23;;;2.90;;
20739;SDS011;10530;49.968;19.844;2023-07-02T22:48:47;6.15;;;3.15;;
20739;SDS011;10530;49.968;19.844;2023-07-02T22:53:49;5.97;;;3.00;;
20739;SDS011;10530;49.968;19.844;2023-07-02T22:58:53;6.95;;;2.95;;
20739;SDS011;10530;49.968;19.844;2023-07-02T23:03:55;7.32;;;3.45;;
20739;SDS011;10530;49.968;19.844;2023-07-02T23:08:58;7.60;;;2.93;;
20739;SDS011;10530;49.968;19.844;2023-07-02T23:14:01;8.52;;;3.03;;
20739;SDS011;10530;49.968;19.844;2023-07-02T23:19:04;6.65;;;3.20;;
20739;SDS011;10530;49.968;19.844;2023-07-02T23:24:07;8.80;;;3.30;;
20739;SDS011;10530;49.968;19.844;2023-07-02T23:29:10;7.32;;;3.75;;
20739;SDS011;10530;49.968;19.844;2023-07-02T23:34:13;8.67;;;3.87;;
20739;SDS011;10530;49.968;19.844;2023-07-02T23:39:17;8.75;;;3.67;;
20739;SDS011;10530;49.968;19.844;2023-07-02T23:44:22;8.25;;;3.85;;
20739;SDS011;10530;49.968;19.844;2023-07-02T23:49:24;9.43;;;3.42;;
20739;SDS011;10530;49.968;19.844;2023-07-02T23:54:27;6.72;;;3.15;;
20739;SDS011;10530;49.968;19.844;2023-07-02T23:59:30;7.10;;;3.53;;
